createdAt,value
2022-11-21T00:01:17.340Z,10.60
2022-11-21T00:03:44.730Z,10.00
2022-11-21T00:06:11.721Z,12.03
2022-11-21T00:08:38.799Z,10.43
2022-11-21T00:11:05.767Z,11.40
2022-11-21T00:13:33.048Z,12.37
2022-11-21T00:16:04.297Z,11.80
2022-11-21T00:18:33.693Z,11.03
2022-11-21T00:21:05.766Z,11.77
2022-11-21T00:23:33.034Z,12.13
2022-11-21T00:26:04.051Z,11.57
2022-11-21T00:28:31.036Z,11.47
2022-11-21T00:30:57.996Z,11.60
2022-11-21T00:33:25.066Z,10.77
2022-11-21T00:35:53.506Z,11.47
2022-11-21T00:38:20.592Z,11.33
2022-11-21T00:40:47.551Z,10.67
2022-11-21T00:43:14.507Z,11.20
2022-11-21T00:45:41.506Z,11.07
2022-11-21T00:48:08.468Z,11.73
2022-11-21T00:50:35.478Z,10.70
2022-11-21T00:53:03.767Z,10.97
2022-11-21T00:55:30.859Z,11.20
2022-11-21T00:57:57.826Z,10.87
2022-11-21T01:00:24.838Z,11.67
2022-11-21T01:02:51.793Z,10.93
2022-11-21T01:05:18.799Z,11.20
2022-11-21T01:07:48.056Z,11.67
2022-11-21T01:10:16.567Z,11.33
2022-11-21T01:12:44.411Z,10.73
2022-11-21T01:15:11.762Z,10.60
2022-11-21T01:17:38.710Z,10.10
2022-11-21T01:20:07.646Z,11.57
2022-11-21T01:22:34.743Z,10.17
2022-11-21T01:25:01.826Z,10.77
2022-11-21T01:27:30.090Z,10.67
2022-11-21T01:29:57.075Z,11.60
2022-11-21T01:32:24.065Z,11.43
2022-11-21T01:34:50.994Z,12.27
2022-11-21T01:37:17.929Z,11.83
2022-11-21T01:39:44.971Z,11.03
2022-11-21T01:42:13.594Z,10.23
2022-11-21T01:44:51.039Z,10.97
2022-11-21T01:47:18.167Z,10.63
2022-11-21T01:49:46.976Z,10.90
2022-11-21T01:52:20.307Z,11.67
2022-11-21T01:54:54.115Z,11.43
2022-11-21T01:57:26.429Z,11.53
2022-11-21T02:00:00.955Z,10.67
2022-11-21T02:02:31.167Z,10.83
2022-11-21T02:05:01.089Z,11.37
2022-11-21T02:07:34.249Z,12.50
2022-11-21T02:10:04.145Z,11.30
2022-11-21T02:12:39.384Z,11.30
2022-11-21T02:15:09.796Z,10.87
2022-11-21T02:17:36.813Z,11.37
2022-11-21T02:20:07.929Z,11.77
2022-11-21T02:22:49.173Z,11.43
2022-11-21T02:25:20.672Z,10.53
2022-11-21T02:27:51.840Z,10.50
2022-11-21T02:30:19.347Z,12.30
2022-11-21T02:32:47.099Z,10.77
2022-11-21T02:35:16.754Z,11.60
2022-11-21T02:37:46.987Z,11.63
2022-11-21T02:40:22.551Z,12.03
2022-11-21T02:43:01.229Z,11.73
2022-11-21T02:45:35.672Z,11.60
2022-11-21T02:48:04.415Z,12.53
2022-11-21T02:50:33.844Z,11.10
2022-11-21T02:53:02.243Z,12.67
2022-11-21T02:55:30.603Z,12.70
2022-11-21T02:58:03.247Z,11.87
2022-11-21T03:00:32.800Z,12.30
2022-11-21T03:02:59.766Z,12.47
2022-11-21T03:05:28.392Z,12.60
2022-11-21T03:07:55.341Z,10.63
2022-11-21T03:10:22.340Z,11.23
2022-11-21T03:12:50.657Z,11.03
2022-11-21T03:15:17.798Z,12.50
2022-11-21T03:17:49.554Z,11.97
2022-11-21T03:20:16.587Z,13.03
2022-11-21T03:22:43.581Z,12.17
2022-11-21T03:25:10.628Z,11.27
2022-11-21T03:27:37.786Z,11.23
2022-11-21T03:30:08.534Z,11.30
2022-11-21T03:32:35.466Z,12.17
2022-11-21T03:35:02.475Z,11.13
2022-11-21T03:37:29.447Z,12.20
2022-11-21T03:39:56.389Z,11.57
2022-11-21T03:42:23.561Z,12.13
2022-11-21T03:44:50.524Z,11.43
2022-11-21T03:47:18.880Z,12.37
2022-11-21T03:49:45.839Z,11.17
2022-11-21T03:52:12.771Z,12.20
2022-11-21T03:54:39.966Z,11.70
2022-11-21T03:57:06.943Z,12.20
2022-11-21T03:59:33.919Z,11.53
2022-11-21T04:02:00.966Z,12.40
2022-11-21T04:04:29.616Z,11.43
2022-11-21T04:06:56.939Z,12.17
2022-11-21T04:09:23.931Z,12.03
2022-11-21T04:11:50.869Z,12.73
2022-11-21T04:14:17.877Z,11.03
2022-11-21T04:16:44.825Z,11.77
2022-11-21T04:19:11.781Z,12.27
2022-11-21T04:21:40.083Z,11.10
2022-11-21T04:24:08.098Z,11.43
2022-11-21T04:26:35.084Z,12.37
2022-11-21T04:29:02.035Z,12.33
2022-11-21T04:31:29.060Z,12.63
2022-11-21T04:33:55.984Z,11.63
2022-11-21T04:36:23.003Z,12.37
2022-11-21T04:38:51.358Z,12.60
2022-11-21T04:41:18.291Z,11.90
2022-11-21T04:43:45.232Z,12.30
2022-11-21T04:46:12.197Z,12.27
2022-11-21T04:48:39.148Z,12.07
2022-11-21T04:51:06.077Z,11.53
2022-11-21T04:53:33.041Z,11.67
2022-11-21T04:56:05.421Z,13.07
2022-11-21T04:58:32.682Z,11.97
2022-11-21T05:01:07.322Z,11.57
2022-11-21T05:03:35.014Z,11.40
2022-11-21T05:06:02.626Z,11.37
2022-11-21T05:08:29.594Z,12.17
2022-11-21T05:11:15.147Z,11.93
2022-11-21T05:13:43.403Z,11.70
2022-11-21T05:16:10.379Z,12.67
2022-11-21T05:18:37.326Z,12.20
2022-11-21T05:21:04.655Z,12.33
2022-11-21T05:23:31.603Z,12.77
2022-11-21T05:25:58.601Z,12.13
2022-11-21T05:28:25.549Z,12.30
2022-11-21T05:30:53.839Z,12.13
2022-11-21T05:33:21.049Z,12.10
2022-11-21T05:35:48.060Z,13.17
2022-11-21T05:38:15.291Z,11.80
2022-11-21T05:40:42.327Z,13.13
2022-11-21T05:43:30.357Z,13.17
2022-11-21T05:45:58.738Z,13.33
2022-11-21T05:48:25.709Z,13.70
2022-11-21T05:50:53.038Z,13.23
2022-11-21T05:53:20.437Z,15.40
2022-11-21T05:55:47.717Z,12.23
2022-11-21T05:58:15.112Z,13.63
2022-11-21T06:00:42.459Z,13.27
2022-11-21T06:03:26.930Z,13.50
2022-11-21T06:06:01.023Z,13.07
2022-11-21T06:08:29.668Z,13.37
2022-11-21T06:10:56.760Z,14.30
2022-11-21T06:13:24.078Z,13.57
2022-11-21T06:15:54.168Z,13.93
2022-11-21T06:18:22.862Z,13.93
2022-11-21T06:20:50.549Z,13.83
2022-11-21T06:23:18.173Z,14.60
2022-11-21T06:25:45.253Z,14.43
2022-11-21T06:28:12.672Z,13.30
2022-11-21T06:30:39.627Z,12.93
2022-11-21T06:33:07.562Z,13.57
2022-11-21T06:35:38.827Z,14.03
2022-11-21T06:38:05.827Z,13.10
2022-11-21T06:40:32.893Z,12.53
2022-11-21T06:43:00.098Z,13.80
2022-11-21T06:45:27.153Z,13.63
2022-11-21T06:47:54.188Z,14.17
2022-11-21T06:50:22.498Z,14.70
2022-11-21T06:52:50.822Z,15.60
2022-11-21T06:55:17.866Z,15.77
2022-11-21T06:57:44.814Z,14.77
2022-11-21T07:00:13.949Z,16.10
2022-11-21T07:02:41.938Z,13.90
2022-11-21T07:05:09.734Z,14.53
2022-11-21T07:07:36.689Z,13.80
2022-11-21T07:10:06.432Z,15.13
2022-11-21T07:12:53.271Z,13.33
2022-11-21T07:15:20.526Z,14.47
2022-11-21T07:17:47.606Z,13.97
2022-11-21T07:20:14.880Z,15.93
2022-11-21T07:22:41.869Z,14.43
2022-11-21T07:25:10.625Z,15.27
2022-11-21T07:27:37.565Z,14.50
2022-11-21T07:30:05.698Z,15.40
2022-11-21T07:32:32.775Z,15.37
2022-11-21T07:34:59.791Z,16.40
2022-11-21T07:37:27.200Z,16.17
2022-11-21T07:39:54.159Z,16.67
2022-11-21T07:42:22.518Z,15.50
2022-11-21T07:44:49.574Z,15.90
2022-11-21T07:47:16.619Z,15.97
2022-11-21T07:49:43.623Z,17.23
2022-11-21T07:52:10.667Z,15.87
2022-11-21T07:54:37.681Z,15.27
2022-11-21T07:57:04.624Z,13.53
2022-11-21T07:59:32.949Z,13.77
2022-11-21T08:02:00.203Z,13.70
2022-11-21T08:04:28.177Z,12.73
2022-11-21T08:06:55.501Z,15.77
2022-11-21T08:09:22.537Z,13.90
2022-11-21T08:11:49.540Z,15.00
2022-11-21T08:14:16.493Z,14.27
2022-11-21T08:16:44.853Z,14.93
2022-11-21T08:19:12.169Z,17.37
2022-11-21T08:21:39.439Z,15.73
2022-11-21T08:24:10.921Z,17.00
2022-11-21T08:26:37.991Z,14.43
2022-11-21T08:29:04.968Z,16.00
2022-11-21T08:31:32.360Z,17.60
2022-11-21T08:34:00.884Z,18.93
2022-11-21T08:36:30.004Z,14.40
2022-11-21T08:38:57.276Z,18.30
2022-11-21T08:41:42.797Z,19.00
2022-11-21T08:44:13.855Z,16.57
2022-11-21T08:46:41.785Z,17.50
2022-11-21T08:49:10.218Z,16.57
2022-11-21T08:51:37.174Z,15.97
2022-11-21T08:54:04.270Z,15.13
2022-11-21T08:56:31.840Z,16.17
2022-11-21T08:58:58.950Z,15.90
2022-11-21T09:01:25.937Z,14.43
2022-11-21T09:03:52.944Z,17.43
2022-11-21T09:06:21.289Z,18.23
2022-11-21T09:08:48.369Z,15.83
2022-11-21T09:11:15.444Z,16.93
2022-11-21T09:13:42.403Z,16.57
2022-11-21T09:16:30.332Z,17.33
2022-11-21T09:18:57.299Z,17.17
2022-11-21T09:21:25.594Z,17.17
2022-11-21T09:23:52.565Z,17.17
2022-11-21T09:26:20.643Z,16.70
2022-11-21T09:28:50.783Z,17.17
2022-11-21T09:31:18.633Z,17.57
2022-11-21T09:33:47.074Z,17.17
2022-11-21T09:36:14.911Z,16.77
2022-11-21T09:38:46.320Z,16.00
2022-11-21T09:41:47.013Z,16.60
2022-11-21T09:44:47.348Z,15.83
2022-11-21T09:47:23.739Z,17.37
2022-11-21T09:49:59.945Z,16.83
2022-11-21T09:52:37.316Z,16.00
2022-11-21T09:55:17.045Z,15.93
2022-11-21T09:57:49.111Z,15.70
2022-11-21T10:00:21.988Z,17.57
2022-11-21T10:02:49.866Z,16.00
2022-11-21T10:05:29.928Z,16.03
2022-11-21T10:08:08.663Z,14.93
2022-11-21T10:10:54.507Z,14.63
2022-11-21T10:13:38.994Z,15.13
2022-11-21T10:16:18.932Z,15.73
2022-11-21T10:19:17.738Z,14.47
2022-11-21T10:22:29.495Z,15.87
2022-11-21T10:25:03.139Z,15.03
2022-11-21T10:27:38.759Z,14.57
2022-11-21T10:30:15.204Z,15.17
2022-11-21T10:32:47.209Z,14.47
2022-11-21T10:35:21.218Z,14.80
2022-11-21T10:37:53.299Z,13.87
2022-11-21T10:40:42.002Z,14.77
2022-11-21T10:43:49.705Z,14.63
2022-11-21T10:46:16.765Z,13.43
2022-11-21T10:48:55.479Z,15.53
2022-11-21T10:51:44.986Z,20.97
2022-11-21T10:54:32.810Z,14.83
2022-11-21T10:57:07.032Z,14.33
2022-11-21T10:59:35.797Z,15.03
2022-11-21T11:02:23.678Z,14.77
2022-11-21T11:05:20.629Z,14.90
2022-11-21T11:08:06.204Z,15.30
2022-11-21T11:10:36.630Z,14.27
2022-11-21T11:13:50.664Z,14.63
2022-11-21T11:16:21.378Z,14.23
2022-11-21T11:18:57.551Z,13.23
2022-11-21T11:21:29.398Z,14.40
2022-11-21T11:24:21.446Z,13.40
2022-11-21T11:26:58.674Z,14.23
2022-11-21T11:29:28.420Z,12.77
2022-11-21T11:32:00.009Z,12.83
2022-11-21T11:34:38.535Z,12.63
2022-11-21T11:37:22.951Z,13.43
2022-11-21T11:40:08.117Z,12.10
2022-11-21T11:43:42.336Z,13.40
2022-11-21T11:46:51.299Z,14.47
2022-11-21T11:49:31.538Z,13.27
2022-11-21T11:52:05.516Z,13.07
2022-11-21T11:54:47.410Z,13.20
2022-11-21T11:57:14.693Z,13.23
2022-11-21T11:59:49.916Z,12.37
2022-11-21T12:02:28.932Z,13.97
2022-11-21T12:05:03.448Z,13.77
2022-11-21T12:08:39.467Z,12.83
2022-11-21T12:10:58.108Z,13.43
2022-11-21T12:13:28.411Z,12.07
2022-11-21T12:16:10.259Z,12.23
2022-11-21T12:18:52.812Z,13.37
2022-11-21T12:21:20.924Z,12.70
2022-11-21T12:23:50.929Z,13.00
2022-11-21T12:26:36.187Z,10.87
2022-11-21T12:29:34.671Z,13.07
2022-11-21T12:32:30.262Z,11.77
2022-11-21T12:35:47.178Z,13.47
2022-11-21T12:38:45.257Z,12.60
2022-11-21T12:41:46.327Z,13.67
2022-11-21T12:44:34.106Z,12.97
2022-11-21T12:47:24.924Z,12.90
2022-11-21T12:50:24.548Z,12.53
2022-11-21T12:53:18.378Z,14.43
2022-11-21T12:55:48.014Z,13.53
2022-11-21T12:58:34.332Z,13.40
2022-11-21T13:01:21.815Z,12.53
2022-11-21T13:04:00.128Z,12.93
2022-11-21T13:06:31.344Z,11.93
2022-11-21T13:09:02.710Z,12.30
2022-11-21T13:11:58.946Z,12.10
2022-11-21T13:14:46.147Z,11.97
2022-11-21T13:17:41.665Z,11.20
2022-11-21T13:20:22.598Z,11.10
2022-11-21T13:22:58.740Z,11.37
2022-11-21T13:25:47.461Z,10.00
2022-11-21T13:28:36.440Z,10.73
2022-11-21T13:31:30.900Z,9.57
2022-11-21T13:33:59.476Z,10.17
2022-11-21T13:36:42.767Z,9.57
2022-11-21T13:39:28.446Z,10.70
2022-11-21T13:42:26.860Z,10.53
2022-11-21T13:44:54.407Z,9.00
2022-11-21T13:48:17.350Z,8.63
2022-11-21T13:51:22.837Z,10.27
2022-11-21T13:54:17.638Z,9.77
2022-11-21T13:57:14.355Z,10.87
2022-11-21T14:00:03.875Z,10.53
2022-11-21T14:03:06.231Z,10.93
2022-11-21T14:06:19.670Z,11.23
2022-11-21T14:09:14.357Z,10.83
2022-11-21T14:11:49.386Z,11.57
2022-11-21T14:14:33.631Z,12.47
2022-11-21T14:17:30.697Z,12.57
2022-11-21T14:20:09.703Z,12.35
2022-11-21T14:22:45.688Z,12.03
2022-11-21T14:25:19.025Z,12.93
2022-11-21T14:27:49.951Z,13.57
2022-11-21T14:30:35.384Z,13.37
2022-11-21T14:33:27.357Z,13.87
2022-11-21T14:36:03.687Z,14.10
2022-11-21T14:38:36.049Z,13.47
2022-11-21T14:41:31.390Z,12.87
2022-11-21T14:44:05.226Z,12.03
2022-11-21T14:46:36.195Z,13.73
2022-11-21T14:49:25.356Z,13.20
2022-11-21T14:52:03.234Z,12.93
2022-11-21T14:54:34.579Z,12.53
2022-11-21T14:57:07.627Z,12.80
2022-11-21T14:59:40.246Z,12.17
2022-11-21T15:02:14.324Z,13.00
2022-11-21T15:04:43.421Z,12.73
2022-11-21T15:07:21.200Z,12.77
2022-11-21T15:12:47.943Z,13.83
2022-11-21T15:15:30.187Z,13.63
2022-11-21T15:18:26.242Z,12.23
2022-11-21T15:20:53.628Z,13.27
2022-11-21T15:23:33.127Z,13.07
2022-11-21T15:26:01.776Z,13.33
2022-11-21T15:28:30.244Z,13.37
2022-11-21T15:31:17.531Z,12.83
2022-11-21T15:34:27.203Z,13.60
2022-11-21T15:36:43.665Z,12.17
2022-11-21T15:39:22.194Z,13.27
2022-11-21T15:41:51.228Z,13.80
2022-11-21T15:44:22.761Z,22.93
2022-11-21T15:46:52.515Z,16.07
2022-11-21T15:49:36.931Z,14.97
2022-11-21T15:52:13.116Z,13.80
2022-11-21T15:54:41.466Z,13.73
2022-11-21T15:57:16.973Z,14.00
2022-11-21T15:59:44.918Z,14.23
2022-11-21T16:02:14.183Z,13.50
2022-11-21T16:04:41.273Z,13.73
2022-11-21T16:07:09.387Z,14.77
2022-11-21T16:09:37.344Z,12.63
2022-11-21T16:12:05.920Z,13.47
2022-11-21T16:14:33.125Z,14.50
2022-11-21T16:17:00.053Z,13.90
2022-11-21T16:19:27.393Z,13.00
2022-11-21T16:21:54.677Z,13.60
2022-11-21T16:24:21.731Z,13.53
2022-11-21T16:26:53.264Z,14.03
2022-11-21T16:29:21.962Z,14.67
2022-11-21T16:31:51.650Z,14.37
2022-11-21T16:34:19.211Z,13.93
2022-11-21T16:36:46.302Z,15.57
2022-11-21T16:39:18.281Z,13.63
2022-11-21T16:41:47.220Z,14.23
2022-11-21T16:44:16.488Z,14.57
2022-11-21T16:46:48.008Z,15.43
2022-11-21T16:49:15.480Z,14.63
2022-11-21T16:51:42.528Z,14.03
2022-11-21T16:54:10.521Z,14.90
2022-11-21T16:56:38.031Z,12.67
2022-11-21T16:59:06.140Z,14.07
2022-11-21T17:01:33.714Z,13.50
2022-11-21T17:04:03.126Z,13.10
2022-11-21T17:06:31.968Z,11.53
2022-11-21T17:09:00.830Z,12.57
2022-11-21T17:11:31.091Z,12.50
2022-11-21T17:14:03.342Z,11.93
2022-11-21T17:16:32.012Z,12.67
2022-11-21T17:19:02.657Z,12.07
2022-11-21T17:21:30.380Z,12.67
2022-11-21T17:23:58.850Z,11.53
2022-11-21T17:26:29.453Z,12.83
2022-11-21T17:28:59.267Z,13.93
2022-11-21T17:31:27.172Z,13.00
2022-11-21T17:33:56.223Z,13.37
2022-11-21T17:36:26.849Z,13.73
2022-11-21T17:38:55.663Z,12.60
2022-11-21T17:41:24.720Z,13.30
2022-11-21T17:43:55.652Z,13.03
2022-11-21T17:46:25.359Z,12.93
2022-11-21T17:48:57.210Z,15.40
2022-11-21T17:51:30.203Z,14.33
2022-11-21T17:53:57.684Z,14.47
2022-11-21T17:56:28.595Z,17.00
2022-11-21T17:59:02.221Z,13.83
2022-11-21T18:01:33.978Z,14.07
2022-11-21T18:04:04.037Z,14.73
2022-11-21T18:06:36.533Z,14.20
2022-11-21T18:09:06.062Z,13.73
2022-11-21T18:11:40.040Z,13.90
2022-11-21T18:14:11.249Z,14.13
2022-11-21T18:16:40.146Z,14.50
2022-11-21T18:19:13.139Z,14.07
2022-11-21T18:21:42.285Z,13.93
2022-11-21T18:24:10.156Z,14.63
2022-11-21T18:26:39.502Z,13.90
2022-11-21T18:31:57.188Z,14.27
2022-11-21T18:34:24.640Z,12.83
2022-11-21T18:36:53.766Z,14.23
2022-11-21T18:39:24.979Z,14.43
2022-11-21T18:41:59.214Z,14.87
2022-11-21T18:44:27.510Z,12.90
2022-11-21T18:46:54.635Z,12.77
2022-11-21T18:49:21.700Z,11.70
2022-11-21T18:51:48.993Z,12.10
2022-11-21T18:54:17.954Z,13.60
2022-11-21T18:56:45.038Z,12.03
2022-11-21T18:59:12.156Z,12.00
2022-11-21T19:01:39.853Z,11.77
2022-11-21T19:04:07.561Z,11.30
2022-11-21T19:06:35.453Z,12.27
2022-11-21T19:09:02.652Z,11.87
2022-11-21T19:11:31.097Z,11.47
2022-11-21T19:14:00.490Z,11.47
2022-11-21T19:16:36.468Z,11.23
2022-11-21T19:21:55.401Z,11.53
2022-11-21T19:24:22.559Z,11.60
2022-11-21T19:26:50.918Z,11.67
2022-11-21T19:29:18.731Z,11.03
2022-11-21T19:31:46.271Z,11.03
2022-11-21T19:34:14.210Z,11.97
2022-11-21T19:36:43.811Z,11.83
2022-11-21T19:39:11.876Z,10.77
2022-11-21T19:41:39.621Z,12.87
2022-11-21T19:44:08.758Z,11.67
2022-11-21T19:46:38.653Z,13.65
2022-11-21T19:49:07.672Z,11.80
2022-11-21T19:51:38.867Z,12.90
2022-11-21T19:54:08.838Z,15.05
2022-11-21T19:56:37.185Z,13.73
2022-11-21T19:59:05.551Z,12.40
2022-11-21T20:01:35.047Z,13.87
2022-11-21T20:04:05.590Z,13.27
2022-11-21T20:06:34.674Z,14.23
2022-11-21T20:09:05.435Z,13.63
2022-11-21T20:11:33.620Z,13.27
2022-11-21T20:14:01.035Z,14.63
2022-11-21T20:16:31.300Z,13.23
2022-11-21T20:19:02.250Z,14.40
2022-11-21T20:21:30.232Z,15.33
2022-11-21T20:23:57.222Z,14.27
2022-11-21T20:26:25.463Z,14.07
2022-11-21T20:28:53.191Z,14.77
2022-11-21T20:31:23.319Z,15.23
2022-11-21T20:33:53.982Z,13.67
2022-11-21T20:36:25.090Z,13.97
2022-11-21T20:38:54.454Z,14.90
2022-11-21T20:41:24.265Z,15.10
2022-11-21T20:46:41.703Z,15.93
2022-11-21T20:49:08.953Z,13.97
2022-11-21T20:54:24.492Z,15.33
2022-11-21T20:56:51.744Z,13.87
2022-11-21T20:59:18.772Z,13.80
2022-11-21T21:01:45.812Z,14.17
2022-11-21T21:04:12.862Z,14.60
2022-11-21T21:06:41.221Z,13.67
2022-11-21T21:09:08.270Z,14.90
2022-11-21T21:11:52.515Z,15.20
2022-11-21T21:14:20.705Z,14.67
2022-11-21T21:16:47.854Z,15.07
2022-11-21T21:19:14.977Z,14.67
2022-11-21T21:21:43.331Z,15.13
2022-11-21T21:24:12.511Z,14.57
2022-11-21T21:26:43.711Z,14.83
2022-11-21T21:29:12.633Z,15.70
2022-11-21T21:31:43.879Z,16.33
2022-11-21T21:34:14.047Z,16.03
2022-11-21T21:36:41.046Z,14.70
2022-11-21T21:39:09.372Z,16.27
2022-11-21T21:41:39.663Z,15.87
2022-11-21T21:44:06.900Z,17.10
2022-11-21T21:46:33.982Z,16.83
2022-11-21T21:49:02.732Z,17.10
2022-11-21T21:51:31.417Z,16.03
2022-11-21T21:53:59.905Z,16.27
2022-11-21T21:56:29.806Z,16.37
2022-11-21T21:58:58.483Z,18.93
2022-11-21T22:01:28.215Z,18.20
2022-11-21T22:03:57.910Z,16.40
2022-11-21T22:06:25.583Z,18.07
2022-11-21T22:08:54.446Z,17.17
2022-11-21T22:11:24.104Z,17.73
2022-11-21T22:13:55.041Z,17.33
2022-11-21T22:16:22.819Z,18.47
2022-11-21T22:18:50.299Z,17.93
2022-11-21T22:21:20.277Z,16.33
2022-11-21T22:24:09.874Z,16.63
2022-11-21T22:26:34.538Z,15.17
2022-11-21T22:29:03.124Z,14.63
2022-11-21T22:31:31.394Z,14.13
2022-11-21T22:33:59.341Z,14.63
2022-11-21T22:36:26.774Z,15.87
2022-11-21T22:38:54.692Z,14.27
2022-11-21T22:41:24.009Z,14.80
2022-11-21T22:43:53.372Z,16.13
2022-11-21T22:46:22.869Z,15.37
2022-11-21T22:48:50.774Z,16.17
2022-11-21T22:51:22.913Z,15.83
2022-11-21T22:53:50.982Z,14.80
2022-11-21T22:56:20.155Z,13.87
2022-11-21T22:58:47.831Z,12.90
2022-11-21T23:01:19.155Z,11.67
2022-11-21T23:03:49.064Z,11.87
2022-11-21T23:06:18.341Z,12.07
2022-11-21T23:08:46.220Z,12.70
2022-11-21T23:11:15.975Z,11.40
2022-11-21T23:13:46.264Z,12.20
2022-11-21T23:16:14.896Z,12.77
2022-11-21T23:18:42.201Z,11.00
2022-11-21T23:21:12.259Z,11.70
2022-11-21T23:23:39.403Z,11.30
2022-11-21T23:26:06.919Z,10.67
2022-11-21T23:28:34.058Z,10.83
2022-11-21T23:31:01.430Z,11.50
2022-11-21T23:33:29.042Z,11.57
2022-11-21T23:35:56.165Z,10.80
2022-11-21T23:38:24.461Z,11.60
2022-11-21T23:40:51.472Z,10.53
2022-11-21T23:43:19.123Z,10.07
2022-11-21T23:45:51.159Z,11.43
2022-11-21T23:48:19.092Z,10.93
2022-11-21T23:50:46.951Z,11.17
2022-11-21T23:53:14.273Z,11.33
2022-11-21T23:55:43.697Z,10.90
2022-11-21T23:58:10.709Z,11.07
